createdAt,value
2022-10-05T00:00:01.286Z,9.91
2022-10-05T00:01:01.312Z,9.95
2022-10-05T00:02:01.323Z,10.02
2022-10-05T00:03:01.299Z,10.01
2022-10-05T00:04:01.257Z,10.04
2022-10-05T00:05:01.261Z,10.04
2022-10-05T00:06:01.234Z,9.98
2022-10-05T00:07:01.220Z,9.95
2022-10-05T00:08:01.242Z,9.95
2022-10-05T00:09:01.193Z,9.98
2022-10-05T00:10:01.189Z,10.01
2022-10-05T00:11:01.173Z,10.01
2022-10-05T00:12:01.206Z,10.04
2022-10-05T00:13:01.190Z,10.01
2022-10-05T00:14:01.119Z,9.98
2022-10-05T00:15:01.144Z,9.98
2022-10-05T00:16:01.161Z,9.98
2022-10-05T00:17:01.127Z,9.99
2022-10-05T00:18:01.151Z,10.01
2022-10-05T00:19:01.093Z,9.98
2022-10-05T00:20:01.070Z,10.02
2022-10-05T00:21:01.081Z,10.02
2022-10-05T00:22:01.053Z,10.02
2022-10-05T00:23:01.070Z,10.02
2022-10-05T00:24:01.024Z,9.94
2022-10-05T00:25:01.017Z,9.84
2022-10-05T00:26:01.002Z,9.79
2022-10-05T00:27:01.005Z,9.73
2022-10-05T00:28:01.051Z,9.66
2022-10-05T00:29:00.983Z,9.59
2022-10-05T00:30:01.011Z,9.55
2022-10-05T00:31:00.959Z,9.58
2022-10-05T00:32:01.006Z,9.68
2022-10-05T00:33:00.962Z,9.83
2022-10-05T00:34:00.902Z,9.83
2022-10-05T00:35:00.906Z,9.83
2022-10-05T00:36:00.879Z,9.80
2022-10-05T00:37:00.915Z,9.74
2022-10-05T00:38:00.920Z,9.68
2022-10-05T00:39:00.870Z,9.65
2022-10-05T00:40:00.846Z,9.58
2022-10-05T00:41:00.850Z,9.64
2022-10-05T00:42:00.826Z,9.64
2022-10-05T00:43:00.861Z,9.58
2022-10-05T00:44:00.796Z,9.56
2022-10-05T00:45:00.786Z,9.51
2022-10-05T00:46:00.844Z,9.58
2022-10-05T00:47:00.767Z,9.58
2022-10-05T00:48:00.805Z,9.51
2022-10-05T00:49:00.756Z,9.50
2022-10-05T00:50:00.738Z,9.47
2022-10-05T00:51:00.728Z,9.40
2022-10-05T00:52:00.723Z,9.36
2022-10-05T00:53:00.758Z,9.41
2022-10-05T00:54:00.722Z,9.37
2022-10-05T00:55:00.688Z,9.32
2022-10-05T00:56:00.667Z,9.32
2022-10-05T00:57:00.699Z,9.28
2022-10-05T00:58:00.699Z,9.23
2022-10-05T00:59:00.654Z,9.18
2022-10-05T01:00:00.621Z,9.18
2022-10-05T01:01:00.693Z,9.22
2022-10-05T01:02:00.639Z,9.22
2022-10-05T01:03:00.626Z,9.16
2022-10-05T01:04:00.571Z,9.08
2022-10-05T01:05:00.572Z,9.08
2022-10-05T01:06:00.565Z,9.06
2022-10-05T01:07:00.556Z,9.06
2022-10-05T01:08:00.575Z,8.95
2022-10-05T01:09:00.529Z,8.97
2022-10-05T01:10:00.618Z,8.94
2022-10-05T01:11:00.522Z,8.89
2022-10-05T01:12:00.498Z,8.89
2022-10-05T01:13:00.529Z,8.92
2022-10-05T01:14:00.479Z,8.88
2022-10-05T01:15:00.467Z,8.87
2022-10-05T01:16:00.503Z,8.87
2022-10-05T01:17:00.514Z,8.84
2022-10-05T01:18:00.479Z,8.78
2022-10-05T01:19:00.414Z,8.82
2022-10-05T01:20:00.400Z,8.89
2022-10-05T01:21:00.394Z,8.88
2022-10-05T01:22:00.374Z,8.84
2022-10-05T01:23:00.413Z,8.76
2022-10-05T01:24:00.358Z,8.69
2022-10-05T01:25:00.355Z,8.66
2022-10-05T01:26:00.340Z,8.61
2022-10-05T01:27:00.328Z,8.63
2022-10-05T01:28:00.421Z,8.58
2022-10-05T01:29:00.304Z,8.56
2022-10-05T01:30:00.306Z,8.53
2022-10-05T01:31:00.278Z,8.52
2022-10-05T01:32:00.263Z,8.48
2022-10-05T01:33:00.293Z,8.38
2022-10-05T01:34:00.233Z,8.33
2022-10-05T01:35:00.240Z,8.31
2022-10-05T01:36:00.213Z,8.28
2022-10-05T01:37:00.222Z,8.28
2022-10-05T01:38:00.241Z,8.28
2022-10-05T01:39:00.193Z,8.31
2022-10-05T01:40:00.171Z,8.34
2022-10-05T01:41:00.181Z,8.34
2022-10-05T01:42:00.194Z,8.42
2022-10-05T01:43:00.174Z,8.44
2022-10-05T01:44:00.139Z,8.41
2022-10-05T01:45:00.118Z,8.33
2022-10-05T01:46:00.219Z,8.27
2022-10-05T01:47:00.104Z,8.26
2022-10-05T01:48:00.116Z,8.16
2022-10-05T01:49:00.077Z,8.09
2022-10-05T01:50:00.049Z,8.01
2022-10-05T01:51:00.041Z,7.91
2022-10-05T01:52:00.036Z,7.80
2022-10-05T01:53:00.095Z,7.72
2022-10-05T01:54:00.028Z,7.69
2022-10-05T01:55:00.017Z,7.63
2022-10-05T01:55:59.990Z,7.57
2022-10-05T01:56:59.977Z,7.57
2022-10-05T01:57:59.999Z,7.53
2022-10-05T01:58:59.954Z,7.53
2022-10-05T01:59:59.954Z,7.51
2022-10-05T02:00:59.991Z,7.53
2022-10-05T02:01:59.938Z,7.51
2022-10-05T02:02:59.949Z,7.45
2022-10-05T02:03:59.928Z,7.39
2022-10-05T02:05:02.640Z,7.33
2022-10-05T02:05:59.880Z,7.29
2022-10-05T02:06:59.881Z,7.23
2022-10-05T02:07:59.911Z,7.21
2022-10-05T02:08:59.855Z,7.15
2022-10-05T02:09:59.836Z,7.11
2022-10-05T02:10:59.836Z,7.10
2022-10-05T02:11:59.813Z,7.06
2022-10-05T02:12:59.856Z,7.10
2022-10-05T02:13:59.797Z,7.13
2022-10-05T02:14:59.757Z,7.10
2022-10-05T02:15:59.800Z,7.11
2022-10-05T02:16:59.756Z,7.13
2022-10-05T02:17:59.788Z,7.11
2022-10-05T02:18:59.744Z,7.05
2022-10-05T02:19:59.710Z,6.99
2022-10-05T02:20:59.723Z,6.97
2022-10-05T02:21:59.686Z,6.96
2022-10-05T02:22:59.733Z,6.93
2022-10-05T02:23:59.671Z,6.93
2022-10-05T02:24:59.682Z,6.92
2022-10-05T02:25:59.677Z,6.89
2022-10-05T02:26:59.645Z,6.87
2022-10-05T02:27:59.729Z,6.84
2022-10-05T02:28:59.636Z,6.82
2022-10-05T02:29:59.614Z,6.82
2022-10-05T02:30:59.600Z,6.79
2022-10-05T02:31:59.597Z,6.77
2022-10-05T02:32:59.610Z,6.75
2022-10-05T02:33:59.561Z,6.69
2022-10-05T02:34:59.536Z,6.67
2022-10-05T02:35:59.540Z,6.63
2022-10-05T02:36:59.542Z,6.59
2022-10-05T02:37:59.564Z,6.62
2022-10-05T02:38:59.517Z,6.69
2022-10-05T02:39:59.499Z,6.75
2022-10-05T02:40:59.481Z,6.75
2022-10-05T02:41:59.488Z,6.77
2022-10-05T02:42:59.512Z,6.78
2022-10-05T02:43:59.452Z,6.77
2022-10-05T02:44:59.436Z,6.75
2022-10-05T02:45:59.463Z,6.66
2022-10-05T02:46:59.414Z,6.64
2022-10-05T02:47:59.449Z,6.63
2022-10-05T02:48:59.403Z,6.66
2022-10-05T02:49:59.384Z,6.66
2022-10-05T02:50:59.364Z,6.69
2022-10-05T02:51:59.357Z,6.70
2022-10-05T02:52:59.393Z,6.74
2022-10-05T02:53:59.339Z,6.72
2022-10-05T02:54:59.342Z,6.77
2022-10-05T02:55:59.327Z,6.77
2022-10-05T02:56:59.302Z,6.75
2022-10-05T02:57:59.334Z,6.74
2022-10-05T02:58:59.279Z,6.70
2022-10-05T02:59:59.284Z,6.66
2022-10-05T03:00:59.289Z,6.63
2022-10-05T03:01:59.296Z,6.59
2022-10-05T03:02:59.268Z,6.57
2022-10-05T03:03:59.210Z,6.57
2022-10-05T03:04:59.199Z,6.54
2022-10-05T03:05:59.197Z,6.46
2022-10-05T03:06:59.201Z,6.45
2022-10-05T03:07:59.211Z,6.45
2022-10-05T03:08:59.184Z,6.44
2022-10-05T03:10:01.234Z,6.39
2022-10-05T03:10:59.190Z,6.38
2022-10-05T03:11:59.128Z,6.36
2022-10-05T03:12:59.169Z,6.38
2022-10-05T03:13:59.115Z,6.35
2022-10-05T03:14:59.101Z,6.35
2022-10-05T03:15:59.171Z,6.36
2022-10-05T03:16:59.082Z,6.39
2022-10-05T03:17:59.123Z,6.38
2022-10-05T03:18:59.064Z,6.38
2022-10-05T03:19:59.065Z,6.31
2022-10-05T03:20:59.033Z,6.24
2022-10-05T03:21:59.019Z,6.19
2022-10-05T03:22:59.051Z,6.19
2022-10-05T03:23:58.992Z,6.12
2022-10-05T03:24:59.004Z,6.09
2022-10-05T03:25:58.973Z,6.11
2022-10-05T03:26:58.983Z,6.07
2022-10-05T03:27:59.040Z,5.99
2022-10-05T03:28:58.945Z,5.94
2022-10-05T03:29:58.962Z,5.97
2022-10-05T03:30:58.937Z,5.98
2022-10-05T03:31:58.929Z,5.93
2022-10-05T03:32:58.891Z,5.91
2022-10-05T03:33:58.917Z,5.91
2022-10-05T03:34:58.863Z,5.87
2022-10-05T03:35:58.862Z,5.84
2022-10-05T03:36:58.854Z,5.83
2022-10-05T03:37:58.845Z,5.82
2022-10-05T03:38:58.866Z,5.82
2022-10-05T03:39:58.815Z,5.80
2022-10-05T03:40:58.796Z,5.84
2022-10-05T03:41:58.797Z,5.84
2022-10-05T03:42:58.778Z,5.87
2022-10-05T03:43:58.818Z,5.93
2022-10-05T03:44:58.751Z,5.91
2022-10-05T03:45:58.811Z,6.08
2022-10-05T03:46:58.740Z,6.09
2022-10-05T03:48:01.435Z,6.11
2022-10-05T03:48:58.747Z,6.09
2022-10-05T03:49:58.698Z,6.11
2022-10-05T03:50:58.692Z,6.08
2022-10-05T03:51:58.679Z,6.04
2022-10-05T03:52:58.672Z,6.01
2022-10-05T03:53:58.706Z,5.94
2022-10-05T03:54:58.642Z,5.94
2022-10-05T03:55:58.669Z,5.89
2022-10-05T03:56:58.620Z,5.87
2022-10-05T03:57:58.622Z,5.84
2022-10-05T03:58:58.648Z,5.82
2022-10-05T03:59:58.606Z,5.75
2022-10-05T04:00:58.571Z,5.72
2022-10-05T04:01:58.651Z,5.68
2022-10-05T04:02:58.563Z,5.65
2022-10-05T04:03:58.581Z,5.66
2022-10-05T04:04:58.515Z,5.64
2022-10-05T04:05:58.536Z,5.64
2022-10-05T04:06:58.512Z,5.64
2022-10-05T04:07:58.502Z,5.64
2022-10-05T04:08:58.522Z,5.69
2022-10-05T04:09:58.476Z,5.68
2022-10-05T04:10:58.456Z,5.71
2022-10-05T04:11:58.455Z,5.69
2022-10-05T04:12:58.436Z,5.72
2022-10-05T04:13:58.476Z,5.72
2022-10-05T04:14:58.397Z,5.72
2022-10-05T04:15:58.477Z,5.69
2022-10-05T04:16:58.436Z,5.68
2022-10-05T04:17:58.380Z,5.65
2022-10-05T04:18:58.418Z,5.62
2022-10-05T04:19:58.373Z,5.56
2022-10-05T04:20:58.362Z,5.57
2022-10-05T04:21:58.343Z,5.57
2022-10-05T04:22:58.336Z,5.59
2022-10-05T04:23:58.381Z,5.61
2022-10-05T04:24:58.286Z,5.62
2022-10-05T04:25:58.303Z,5.62
2022-10-05T04:26:58.275Z,5.59
2022-10-05T04:27:58.294Z,5.57
2022-10-05T04:28:58.308Z,5.59
2022-10-05T04:29:58.260Z,5.56
2022-10-05T04:30:58.263Z,5.56
2022-10-05T04:31:58.208Z,5.57
2022-10-05T04:32:58.218Z,5.54
2022-10-05T04:33:58.242Z,5.56
2022-10-05T04:34:58.187Z,5.59
2022-10-05T04:35:58.184Z,5.59
2022-10-05T04:36:58.174Z,5.61
2022-10-05T04:37:58.170Z,5.59
2022-10-05T04:38:58.185Z,5.61
2022-10-05T04:39:58.147Z,5.61
2022-10-05T04:40:58.154Z,5.62
2022-10-05T04:41:58.124Z,5.62
2022-10-05T04:42:58.155Z,5.65
2022-10-05T04:43:58.096Z,5.66
2022-10-05T04:44:59.392Z,5.66
2022-10-05T04:45:58.060Z,5.71
2022-10-05T04:46:58.127Z,5.73
2022-10-05T04:47:58.101Z,5.73
2022-10-05T04:48:58.036Z,5.76
2022-10-05T04:49:58.029Z,5.89
2022-10-05T04:50:58.020Z,5.90
2022-10-05T04:51:58.005Z,5.90
2022-10-05T04:52:58.024Z,5.93
2022-10-05T04:53:57.968Z,5.94
2022-10-05T04:54:57.974Z,5.94
2022-10-05T04:55:57.977Z,5.94
2022-10-05T04:56:57.933Z,6.01
2022-10-05T04:57:57.987Z,6.04
2022-10-05T04:58:57.918Z,6.05
2022-10-05T04:59:57.915Z,6.07
2022-10-05T05:00:57.966Z,6.12
2022-10-05T05:01:57.880Z,6.19
2022-10-05T05:02:57.910Z,6.27
2022-10-05T05:03:57.855Z,6.31
2022-10-05T05:04:57.831Z,6.41
2022-10-05T05:06:16.462Z,6.41
2022-10-05T05:06:58.817Z,6.39
2022-10-05T05:07:57.851Z,6.42
2022-10-05T05:08:57.801Z,6.42
2022-10-05T05:09:57.799Z,6.48
2022-10-05T05:10:57.788Z,6.51
2022-10-05T05:11:57.795Z,6.56
2022-10-05T05:12:57.827Z,6.54
2022-10-05T05:13:57.746Z,6.52
2022-10-05T05:14:57.736Z,6.51
2022-10-05T05:15:57.906Z,6.59
2022-10-05T05:16:57.727Z,6.62
2022-10-05T05:17:57.756Z,6.60
2022-10-05T05:18:57.698Z,6.64
2022-10-05T05:19:57.717Z,6.74
2022-10-05T05:20:57.666Z,6.78
2022-10-05T05:21:57.662Z,6.84
2022-10-05T05:22:57.697Z,6.88
2022-10-05T05:23:57.646Z,6.88
2022-10-05T05:24:57.619Z,6.88
2022-10-05T05:25:57.641Z,6.88
2022-10-05T05:26:57.643Z,6.92
2022-10-05T05:27:57.709Z,6.93
2022-10-05T05:28:57.567Z,7.02
2022-10-05T05:29:57.560Z,7.10
2022-10-05T05:30:57.593Z,7.18
2022-10-05T05:31:57.543Z,7.24
2022-10-05T05:32:57.672Z,7.36
2022-10-05T05:33:57.507Z,7.47
2022-10-05T05:34:57.496Z,7.53
2022-10-05T05:35:57.500Z,7.54
2022-10-05T05:36:57.473Z,7.58
2022-10-05T05:37:57.516Z,7.72
2022-10-05T05:38:57.462Z,7.76
2022-10-05T05:39:57.458Z,7.76
2022-10-05T05:40:57.446Z,7.75
2022-10-05T05:41:57.454Z,7.87
2022-10-05T05:42:57.468Z,7.90
2022-10-05T05:43:57.402Z,7.90
2022-10-05T05:44:57.391Z,7.94
2022-10-05T05:45:57.386Z,7.91
2022-10-05T05:47:05.410Z,7.90
2022-10-05T05:47:58.412Z,7.87
2022-10-05T05:48:57.359Z,7.83
2022-10-05T05:49:57.332Z,7.76
2022-10-05T05:50:57.354Z,7.73
2022-10-05T05:51:57.320Z,7.70
2022-10-05T05:52:57.389Z,7.69
2022-10-05T05:53:57.309Z,7.67
2022-10-05T05:54:57.274Z,7.66
2022-10-05T05:55:57.287Z,7.63
2022-10-05T05:56:57.257Z,7.67
2022-10-05T05:57:57.297Z,7.70
2022-10-05T05:58:57.237Z,7.69
2022-10-05T05:59:57.221Z,7.67
2022-10-05T06:00:57.226Z,7.70
2022-10-05T06:01:57.283Z,7.75
2022-10-05T06:02:57.345Z,7.80
2022-10-05T06:03:57.178Z,7.88
2022-10-05T06:04:57.178Z,7.97
2022-10-05T06:05:57.161Z,8.06
2022-10-05T06:06:57.155Z,8.06
2022-10-05T06:07:57.197Z,8.09
2022-10-05T06:08:57.126Z,8.16
2022-10-05T06:09:57.117Z,8.19
2022-10-05T06:10:57.091Z,8.20
2022-10-05T06:11:57.101Z,8.23
2022-10-05T06:13:01.487Z,8.24
2022-10-05T06:13:57.078Z,8.27
2022-10-05T06:14:57.058Z,8.34
2022-10-05T06:15:57.080Z,8.42
2022-10-05T06:16:57.126Z,8.49
2022-10-05T06:17:57.071Z,8.58
2022-10-05T06:18:57.021Z,8.69
2022-10-05T06:20:01.093Z,8.79
2022-10-05T06:20:57.993Z,8.91
2022-10-05T06:21:56.986Z,9.02
2022-10-05T06:22:57.031Z,9.11
2022-10-05T06:23:56.976Z,9.21
2022-10-05T06:24:56.937Z,9.29
2022-10-05T06:25:56.941Z,9.39
2022-10-05T06:26:56.927Z,9.48
2022-10-05T06:27:57.037Z,9.58
2022-10-05T06:28:56.900Z,9.68
2022-10-05T06:29:56.904Z,9.82
2022-10-05T06:30:56.890Z,10.04
2022-10-05T06:31:59.023Z,10.23
2022-10-05T06:32:56.889Z,10.41
2022-10-05T06:33:56.828Z,10.49
2022-10-05T06:34:56.843Z,10.64
2022-10-05T06:35:56.840Z,10.79
2022-10-05T06:36:56.820Z,11.04
2022-10-05T06:37:56.837Z,11.18
2022-10-05T06:38:56.784Z,11.35
2022-10-05T06:40:00.854Z,11.54
2022-10-05T06:40:56.770Z,11.86
2022-10-05T06:41:56.760Z,12.17
2022-10-05T06:42:56.789Z,12.36
2022-10-05T06:43:56.744Z,12.57
2022-10-05T06:44:56.729Z,12.82
2022-10-05T06:45:56.772Z,13.03
2022-10-05T06:46:56.690Z,13.16
2022-10-05T06:47:58.629Z,13.19
2022-10-05T06:48:56.688Z,13.12
2022-10-05T06:49:56.659Z,13.12
2022-10-05T06:50:56.663Z,13.09
2022-10-05T06:51:56.643Z,12.98
2022-10-05T06:52:56.676Z,13.03
2022-10-05T06:53:56.640Z,13.22
2022-10-05T06:54:56.611Z,13.31
2022-10-05T06:55:56.596Z,13.28
2022-10-05T06:56:56.595Z,13.37
2022-10-05T06:57:56.645Z,13.39
2022-10-05T06:58:56.562Z,13.28
2022-10-05T06:59:56.568Z,13.12
2022-10-05T07:00:56.586Z,12.94
2022-10-05T07:01:56.579Z,12.91
2022-10-05T07:02:56.547Z,12.85
2022-10-05T07:03:56.500Z,12.90
2022-10-05T07:04:56.476Z,12.80
2022-10-05T07:05:56.500Z,12.82
2022-10-05T07:06:56.476Z,12.83
2022-10-05T07:07:56.536Z,12.83
2022-10-05T07:08:56.448Z,12.85
2022-10-05T07:09:56.450Z,12.93
2022-10-05T07:10:56.435Z,13.05
2022-10-05T07:12:00.828Z,13.12
2022-10-05T07:12:57.466Z,13.12
2022-10-05T07:13:56.396Z,13.31
2022-10-05T07:14:56.379Z,13.47
2022-10-05T07:15:56.592Z,13.85
2022-10-05T07:16:56.362Z,14.04
2022-10-05T07:17:56.349Z,14.14
2022-10-05T07:18:56.380Z,14.29
2022-10-05T07:19:56.334Z,14.63
2022-10-05T07:20:56.315Z,15.10
2022-10-05T07:21:56.358Z,14.99
2022-10-05T07:22:56.291Z,15.10
2022-10-05T07:23:56.346Z,15.25
2022-10-05T07:24:56.259Z,15.49
2022-10-05T07:25:56.267Z,15.61
2022-10-05T07:26:56.237Z,15.86
2022-10-05T07:27:56.260Z,16.20
2022-10-05T07:28:56.282Z,16.02
2022-10-05T07:29:56.223Z,16.17
2022-10-05T07:30:56.259Z,16.41
2022-10-05T07:31:56.177Z,16.36
2022-10-05T07:32:56.180Z,16.46
2022-10-05T07:33:56.205Z,16.43
2022-10-05T07:34:56.159Z,16.61
2022-10-05T07:35:56.144Z,16.47
2022-10-05T07:36:56.408Z,16.32
2022-10-05T07:37:56.113Z,16.12
2022-10-05T07:38:56.151Z,16.26
2022-10-05T07:40:00.631Z,16.39
2022-10-05T07:40:57.084Z,16.53
2022-10-05T07:41:56.079Z,16.68
2022-10-05T07:42:56.087Z,16.94
2022-10-05T07:44:02.642Z,17.01
2022-10-05T07:44:57.059Z,17.39
2022-10-05T07:45:56.130Z,17.68
2022-10-05T07:46:56.034Z,17.94
2022-10-05T07:47:56.015Z,17.90
2022-10-05T07:48:56.031Z,17.83
2022-10-05T07:49:55.986Z,17.68
2022-10-05T07:50:55.971Z,18.03
2022-10-05T07:51:55.952Z,17.82
2022-10-05T07:52:55.963Z,17.78
2022-10-05T07:53:55.989Z,17.82
2022-10-05T07:54:55.926Z,17.74
2022-10-05T07:55:55.925Z,17.78
2022-10-05T07:56:55.914Z,17.60
2022-10-05T07:57:55.935Z,17.49
2022-10-05T07:58:55.961Z,17.45
2022-10-05T07:59:55.841Z,17.56
2022-10-05T08:00:55.860Z,17.46
2022-10-05T08:01:55.845Z,17.38
2022-10-05T08:02:55.949Z,17.70
2022-10-05T08:03:55.800Z,17.89
2022-10-05T08:04:55.823Z,17.86
2022-10-05T08:05:55.793Z,17.51
2022-10-05T08:06:55.802Z,17.57
2022-10-05T08:07:55.852Z,17.67
2022-10-05T08:08:55.771Z,17.95
2022-10-05T08:09:55.761Z,18.19
2022-10-05T08:10:55.751Z,18.45
2022-10-05T08:11:55.743Z,18.73
2022-10-05T08:12:55.736Z,18.92
2022-10-05T08:13:55.753Z,18.59
2022-10-05T08:14:55.711Z,18.66
2022-10-05T08:15:55.711Z,18.74
2022-10-05T08:16:55.696Z,18.45
2022-10-05T08:17:55.657Z,18.08
2022-10-05T08:18:55.716Z,18.08
2022-10-05T08:19:55.636Z,18.19
2022-10-05T08:20:55.651Z,18.60
2022-10-05T08:21:55.619Z,18.99
2022-10-05T08:22:55.694Z,19.39
2022-10-05T08:23:55.653Z,19.18
2022-10-05T08:24:55.588Z,19.47
2022-10-05T08:25:55.592Z,19.59
2022-10-05T08:26:55.565Z,19.85
2022-10-05T08:27:55.632Z,19.51
2022-10-05T08:28:55.635Z,19.69
2022-10-05T08:29:55.524Z,19.76
2022-10-05T08:30:55.563Z,20.24
2022-10-05T08:31:55.518Z,20.26
2022-10-05T08:32:55.537Z,20.43
2022-10-05T08:33:55.540Z,20.00
2022-10-05T08:34:55.476Z,20.09
2022-10-05T08:35:55.460Z,20.09
2022-10-05T08:36:55.533Z,20.39
2022-10-05T08:37:55.442Z,20.24
2022-10-05T08:38:55.493Z,20.44
2022-10-05T08:39:55.418Z,20.31
2022-10-05T08:40:55.417Z,20.18
2022-10-05T08:41:55.393Z,20.48
2022-10-05T08:42:55.382Z,20.36
2022-10-05T08:43:55.407Z,20.60
2022-10-05T08:44:55.362Z,20.87
2022-10-05T08:45:55.388Z,20.96
2022-10-05T08:46:55.363Z,21.27
2022-10-05T08:47:55.309Z,21.36
2022-10-05T08:48:55.356Z,21.02
2022-10-05T08:49:55.304Z,21.02
2022-10-05T08:50:55.323Z,21.00
2022-10-05T08:51:55.282Z,20.29
2022-10-05T08:52:55.284Z,20.58
2022-10-05T08:53:55.331Z,20.78
2022-10-05T08:54:55.276Z,20.75
2022-10-05T08:55:55.240Z,20.96
2022-10-05T08:56:55.232Z,20.77
2022-10-05T08:57:55.198Z,20.41
2022-10-05T08:58:55.239Z,20.44
2022-10-05T08:59:55.181Z,20.16
2022-10-05T09:00:55.175Z,19.91
2022-10-05T09:01:55.270Z,19.67
2022-10-05T09:02:55.193Z,19.30
2022-10-05T09:03:55.203Z,18.93
2022-10-05T09:04:55.152Z,18.88
2022-10-05T09:05:55.130Z,18.81
2022-10-05T09:06:55.149Z,18.41
2022-10-05T09:07:55.112Z,18.37
2022-10-05T09:08:55.116Z,18.60
2022-10-05T09:09:59.489Z,18.74
2022-10-05T09:10:56.081Z,18.71
2022-10-05T09:11:55.054Z,18.70
2022-10-05T09:12:55.051Z,18.77
2022-10-05T09:13:55.073Z,18.95
2022-10-05T09:15:20.490Z,19.21
2022-10-05T09:15:56.052Z,19.58
2022-10-05T09:16:55.004Z,19.73
2022-10-05T09:17:55.014Z,19.81
2022-10-05T09:18:55.053Z,19.81
2022-10-05T09:19:54.978Z,19.70
2022-10-05T09:20:54.967Z,19.71
2022-10-05T09:21:54.937Z,19.79
2022-10-05T09:22:54.956Z,20.10
2022-10-05T09:23:54.977Z,20.11
2022-10-05T09:24:54.892Z,20.34
2022-10-05T09:25:54.899Z,20.25
2022-10-05T09:26:54.885Z,20.81
2022-10-05T09:27:54.908Z,20.95
2022-10-05T09:28:54.903Z,20.81
2022-10-05T09:29:54.866Z,20.82
2022-10-05T09:30:54.889Z,20.67
2022-10-05T09:31:54.857Z,20.63
2022-10-05T09:32:54.827Z,20.51
2022-10-05T09:33:54.852Z,20.51
2022-10-05T09:34:54.823Z,20.93
2022-10-05T09:35:54.791Z,21.07
2022-10-05T09:36:54.788Z,20.78
2022-10-05T09:37:54.760Z,20.32
2022-10-05T09:38:54.831Z,20.48
2022-10-05T09:39:59.068Z,20.56
2022-10-05T09:40:55.734Z,20.59
2022-10-05T09:41:54.713Z,20.37
2022-10-05T09:42:54.714Z,20.16
2022-10-05T09:43:54.741Z,19.81
2022-10-05T09:44:54.685Z,19.47
2022-10-05T09:45:54.712Z,19.41
2022-10-05T09:46:54.671Z,19.45
2022-10-05T09:47:54.693Z,19.63
2022-10-05T09:48:54.679Z,19.79
2022-10-05T09:49:54.618Z,20.04
2022-10-05T09:50:54.622Z,20.06
2022-10-05T09:51:54.618Z,20.55
2022-10-05T09:52:54.641Z,20.67
2022-10-05T09:53:54.577Z,20.81
2022-10-05T09:54:54.595Z,21.15
2022-10-05T09:55:54.554Z,21.40
2022-10-05T09:56:54.565Z,21.80
2022-10-05T09:57:54.563Z,21.88
2022-10-05T09:58:54.536Z,21.93
2022-10-05T09:59:54.568Z,21.93
2022-10-05T10:01:03.718Z,22.26
2022-10-05T10:01:55.582Z,22.51
2022-10-05T10:02:54.609Z,22.94
2022-10-05T10:03:54.464Z,22.51
2022-10-05T10:04:54.465Z,22.80
2022-10-05T10:05:54.445Z,23.09
2022-10-05T10:06:54.445Z,24.01
2022-10-05T10:07:54.462Z,24.36
2022-10-05T10:08:54.424Z,24.63
2022-10-05T10:09:54.396Z,24.60
2022-10-05T10:10:54.410Z,24.74
2022-10-05T10:11:54.394Z,23.86
2022-10-05T10:12:54.432Z,24.10
2022-10-05T10:13:54.364Z,24.55
2022-10-05T10:14:54.348Z,24.70
2022-10-05T10:15:54.369Z,24.40
2022-10-05T10:16:54.347Z,24.78
2022-10-05T10:17:54.356Z,25.08
2022-10-05T10:18:54.302Z,24.68
2022-10-05T10:19:54.300Z,24.70
2022-10-05T10:20:54.290Z,24.68
2022-10-05T10:21:54.285Z,24.30
2022-10-05T10:22:54.261Z,24.74
2022-10-05T10:23:54.284Z,24.84
2022-10-05T10:24:54.236Z,24.38
2022-10-05T10:25:54.220Z,23.99
2022-10-05T10:26:54.219Z,23.98
2022-10-05T10:27:54.303Z,23.32
2022-10-05T10:28:54.257Z,24.02
2022-10-05T10:29:54.180Z,23.98
2022-10-05T10:30:54.205Z,24.32
2022-10-05T10:31:54.159Z,24.65
2022-10-05T10:32:54.137Z,24.63
2022-10-05T10:33:54.187Z,24.66
2022-10-05T10:34:54.167Z,25.16
2022-10-05T10:35:54.121Z,25.58
2022-10-05T10:36:54.123Z,25.41
2022-10-05T10:37:54.131Z,25.14
2022-10-05T10:38:54.092Z,25.81
2022-10-05T10:39:54.085Z,26.60
2022-10-05T10:40:54.069Z,26.43
2022-10-05T10:41:54.064Z,26.18
2022-10-05T10:42:54.058Z,26.21
2022-10-05T10:43:54.084Z,26.68
2022-10-05T10:44:54.025Z,26.45
2022-10-05T10:45:54.003Z,26.28
2022-10-05T10:46:54.126Z,26.25
2022-10-05T10:47:53.992Z,26.68
2022-10-05T10:48:54.023Z,27.36
2022-10-05T10:49:53.961Z,28.22
2022-10-05T10:50:53.968Z,28.25
2022-10-05T10:51:53.960Z,28.37
2022-10-05T10:52:53.944Z,26.90
2022-10-05T10:53:53.977Z,26.78
2022-10-05T10:54:53.906Z,26.38
2022-10-05T10:55:53.895Z,26.96
2022-10-05T10:56:53.887Z,27.51
2022-10-05T10:57:53.898Z,27.85
2022-10-05T10:58:53.922Z,27.85
2022-10-05T10:59:53.838Z,27.82
2022-10-05T11:00:53.865Z,27.11
2022-10-05T11:01:53.885Z,26.71
2022-10-05T11:02:53.922Z,26.29
2022-10-05T11:03:53.877Z,25.90
2022-10-05T11:04:53.803Z,25.32
2022-10-05T11:05:53.794Z,24.74
2022-10-05T11:06:53.764Z,24.16
2022-10-05T11:07:53.769Z,24.39
2022-10-05T11:08:53.824Z,24.48
2022-10-05T11:09:53.742Z,24.40
2022-10-05T11:10:53.740Z,24.66
2022-10-05T11:11:53.727Z,24.53
2022-10-05T11:12:53.702Z,24.06
2022-10-05T11:13:53.769Z,23.68
2022-10-05T11:14:53.702Z,23.63
2022-10-05T11:15:53.751Z,23.77
2022-10-05T11:16:53.922Z,23.88
2022-10-05T11:17:53.656Z,24.20
2022-10-05T11:18:53.713Z,23.92
2022-10-05T11:20:03.555Z,23.31
2022-10-05T11:20:54.626Z,23.58
2022-10-05T11:21:53.648Z,24.16
2022-10-05T11:22:53.603Z,24.57
2022-10-05T11:23:53.636Z,24.84
2022-10-05T11:24:53.584Z,24.30
2022-10-05T11:25:53.568Z,24.13
2022-10-05T11:26:53.557Z,24.01
2022-10-05T11:27:53.622Z,23.93
2022-10-05T11:28:53.592Z,23.81
2022-10-05T11:29:53.541Z,23.43
2022-10-05T11:30:53.589Z,23.17
2022-10-05T11:31:53.879Z,23.23
2022-10-05T11:32:53.511Z,23.23
2022-10-05T11:33:53.541Z,23.20
2022-10-05T11:34:53.493Z,22.85
2022-10-05T11:35:53.461Z,23.02
2022-10-05T11:36:53.478Z,23.03
2022-10-05T11:37:53.441Z,22.99
2022-10-05T11:38:53.476Z,22.83
2022-10-05T11:39:53.443Z,22.94
2022-10-05T11:40:53.432Z,22.85
2022-10-05T11:41:53.415Z,22.84
2022-10-05T11:42:53.388Z,23.03
2022-10-05T11:43:53.421Z,23.06
2022-10-05T11:44:53.375Z,22.88
2022-10-05T11:45:53.361Z,22.73
2022-10-05T11:46:53.411Z,22.45
2022-10-05T11:47:53.343Z,22.30
2022-10-05T11:48:53.390Z,22.47
2022-10-05T11:49:53.328Z,22.47
2022-10-05T11:50:53.303Z,22.47
2022-10-05T11:51:53.275Z,22.51
2022-10-05T11:52:53.304Z,22.23
2022-10-05T11:53:53.302Z,22.23
2022-10-05T11:55:09.810Z,22.45
2022-10-05T11:55:54.237Z,22.47
2022-10-05T11:56:54.732Z,22.41
2022-10-05T11:57:53.219Z,22.29
2022-10-05T11:58:53.267Z,22.38
2022-10-05T11:59:53.214Z,22.44
2022-10-05T12:00:53.184Z,22.63
2022-10-05T12:01:53.199Z,22.69
2022-10-05T12:02:53.252Z,22.76
2022-10-05T12:03:53.297Z,22.75
2022-10-05T12:04:53.149Z,22.53
2022-10-05T12:05:53.156Z,22.57
2022-10-05T12:06:53.113Z,22.81
2022-10-05T12:07:53.155Z,23.09
2022-10-05T12:08:53.146Z,23.32
2022-10-05T12:09:53.107Z,23.36
2022-10-05T12:10:53.075Z,23.31
2022-10-05T12:11:57.017Z,23.96
2022-10-05T12:12:54.070Z,24.03
2022-10-05T12:13:53.085Z,24.20
2022-10-05T12:14:53.031Z,23.98
2022-10-05T12:15:53.076Z,24.08
2022-10-05T12:16:53.026Z,25.10
2022-10-05T12:17:52.999Z,26.03
2022-10-05T12:18:53.024Z,26.52
2022-10-05T12:19:52.985Z,26.66
2022-10-05T12:20:52.982Z,26.80
2022-10-05T12:21:52.959Z,26.43
2022-10-05T12:22:52.932Z,25.43
2022-10-05T12:23:52.974Z,24.91
2022-10-05T12:24:52.922Z,24.91
2022-10-05T12:25:52.924Z,24.81
2022-10-05T12:26:52.906Z,24.84
2022-10-05T12:27:52.907Z,24.89
2022-10-05T12:28:52.925Z,25.08
2022-10-05T12:29:52.865Z,25.62
2022-10-05T12:30:52.861Z,26.63
2022-10-05T12:31:52.868Z,27.32
2022-10-05T12:32:53.519Z,28.33
2022-10-05T12:33:52.867Z,28.30
2022-10-05T12:34:52.821Z,28.01
2022-10-05T12:35:52.823Z,27.80
2022-10-05T12:37:06.714Z,27.89
2022-10-05T12:37:53.892Z,27.70
2022-10-05T12:38:52.823Z,28.01
2022-10-05T12:39:52.757Z,28.08
2022-10-05T12:40:52.742Z,28.19
2022-10-05T12:41:52.734Z,28.27
2022-10-05T12:42:52.716Z,27.96
2022-10-05T12:43:52.733Z,27.93
2022-10-05T12:44:52.745Z,27.85
2022-10-05T12:45:52.760Z,28.15
2022-10-05T12:46:52.684Z,27.77
2022-10-05T12:47:53.916Z,27.32
2022-10-05T12:48:52.659Z,26.40
2022-10-05T12:49:52.687Z,26.34
2022-10-05T12:50:52.684Z,26.33
2022-10-05T12:51:52.638Z,26.10
2022-10-05T12:52:52.633Z,26.09
2022-10-05T12:53:52.629Z,25.96
2022-10-05T12:54:52.654Z,25.87
2022-10-05T12:55:52.579Z,25.66
2022-10-05T12:56:52.594Z,25.58
2022-10-05T12:57:52.567Z,26.15
2022-10-05T12:58:52.542Z,26.38
2022-10-05T12:59:52.609Z,26.60
2022-10-05T13:00:52.570Z,26.56
2022-10-05T13:01:52.544Z,25.81
2022-10-05T13:02:52.513Z,25.58
2022-10-05T13:03:52.498Z,25.90